createdAt,value
2018-02-23T00:00:50.598Z,1011.94
2018-02-23T00:01:50.562Z,1011.92
2018-02-23T00:02:50.527Z,1011.91
2018-02-23T00:03:50.494Z,1011.91
2018-02-23T00:04:50.459Z,1011.92
2018-02-23T00:05:50.424Z,1011.93
2018-02-23T00:06:50.390Z,1011.88
2018-02-23T00:07:50.353Z,1011.93
2018-02-23T00:08:50.319Z,1011.91
2018-02-23T00:09:50.284Z,1011.94
2018-02-23T00:10:50.254Z,1011.87
2018-02-23T00:11:50.215Z,1011.88
2018-02-23T00:12:50.180Z,1011.91
2018-02-23T00:13:50.145Z,1011.91
2018-02-23T00:14:50.115Z,1011.88
2018-02-23T00:15:50.075Z,1011.9
2018-02-23T00:16:50.040Z,1011.9
2018-02-23T00:17:50.006Z,1011.86
2018-02-23T00:18:49.972Z,1011.87
2018-02-23T00:19:49.935Z,1011.89
2018-02-23T00:20:49.900Z,1011.89
2018-02-23T00:21:49.871Z,1011.86
2018-02-23T00:22:49.829Z,1011.84
2018-02-23T00:23:49.796Z,1011.87
2018-02-23T00:24:49.761Z,1011.87
2018-02-23T00:25:49.726Z,1011.86
2018-02-23T00:26:49.690Z,1011.85
2018-02-23T00:27:49.656Z,1011.87
2018-02-23T00:28:49.620Z,1011.88
2018-02-23T00:29:49.585Z,1011.87
2018-02-23T00:30:49.550Z,1011.9
2018-02-23T00:31:49.516Z,1011.96
2018-02-23T00:32:49.480Z,1011.91
2018-02-23T00:33:49.444Z,1011.86
2018-02-23T00:34:49.410Z,1011.88
2018-02-23T00:35:49.375Z,1011.9
2018-02-23T00:36:49.339Z,1011.93
2018-02-23T00:37:49.304Z,1011.94
2018-02-23T00:38:49.276Z,1011.94
2018-02-23T00:39:49.235Z,1011.98
2018-02-23T00:40:49.198Z,1011.95
2018-02-23T00:41:49.164Z,1011.97
2018-02-23T00:42:49.129Z,1011.96
2018-02-23T00:43:49.095Z,1011.95
2018-02-23T00:44:49.059Z,1011.96
2018-02-23T00:45:49.033Z,1012
2018-02-23T00:46:48.992Z,1011.97
2018-02-23T00:47:48.954Z,1011.99
2018-02-23T00:48:48.918Z,1011.99
2018-02-23T00:49:48.882Z,1011.99
2018-02-23T00:50:48.848Z,1012.02
2018-02-23T00:51:48.813Z,1012
2018-02-23T00:52:48.777Z,1012
2018-02-23T00:53:48.744Z,1012.01
2018-02-23T00:54:48.708Z,1012.02
2018-02-23T00:55:48.673Z,1012.01
2018-02-23T00:56:48.636Z,1012.03
2018-02-23T00:57:48.602Z,1012.01
2018-02-23T00:58:48.567Z,1012.05
2018-02-23T00:59:48.531Z,1012.03
2018-02-23T01:00:48.496Z,1012.03
2018-02-23T01:01:48.461Z,1011.99
2018-02-23T01:02:48.425Z,1012.03
2018-02-23T01:03:48.390Z,1012.04
2018-02-23T01:04:48.355Z,1012.02
2018-02-23T01:05:48.320Z,1012.03
2018-02-23T01:06:48.284Z,1012.08
2018-02-23T01:07:48.252Z,1012.06
2018-02-23T01:08:48.213Z,1012.08
2018-02-23T01:09:48.181Z,1012.09
2018-02-23T01:10:48.144Z,1012.08
2018-02-23T01:11:48.108Z,1012.05
2018-02-23T01:12:48.074Z,1012.06
2018-02-23T01:13:48.038Z,1012.08
2018-02-23T01:14:48.003Z,1012.1
2018-02-23T01:15:47.968Z,1012.07
2018-02-23T01:16:47.933Z,1012.06
2018-02-23T01:17:47.899Z,1012.04
2018-02-23T01:18:47.862Z,1012.04
2018-02-23T01:19:47.827Z,1012.04
2018-02-23T01:20:47.792Z,1012.02
2018-02-23T01:21:47.756Z,1012.03
2018-02-23T01:22:47.721Z,1012.04
2018-02-23T01:23:47.686Z,1011.99
2018-02-23T01:24:47.651Z,1011.96
2018-02-23T01:25:47.615Z,1011.97
2018-02-23T01:26:47.581Z,1011.94
2018-02-23T01:27:47.546Z,1011.93
2018-02-23T01:28:47.510Z,1011.9
2018-02-23T01:29:47.481Z,1011.9
2018-02-23T01:30:47.439Z,1011.88
2018-02-23T01:31:47.404Z,1011.88
2018-02-23T01:32:47.368Z,1011.9
2018-02-23T01:33:47.333Z,1011.91
2018-02-23T01:34:47.297Z,1011.95
2018-02-23T01:35:47.262Z,1011.91
2018-02-23T01:36:47.227Z,1011.9
2018-02-23T01:37:47.192Z,1011.91
2018-02-23T01:38:47.157Z,1011.88
2018-02-23T01:39:47.128Z,1011.87
2018-02-23T01:40:47.092Z,1011.85
2018-02-23T01:41:47.052Z,1011.85
2018-02-23T01:42:47.017Z,1011.81
2018-02-23T01:43:46.983Z,1011.81
2018-02-23T01:44:46.946Z,1011.86
2018-02-23T01:45:46.912Z,1011.81
2018-02-23T01:46:46.877Z,1011.83
2018-02-23T01:47:46.841Z,1011.81
2018-02-23T01:48:46.811Z,1011.78
2018-02-23T01:49:46.772Z,1011.87
2018-02-23T01:50:46.735Z,1011.87
2018-02-23T01:51:46.701Z,1011.86
2018-02-23T01:52:46.665Z,1011.88
2018-02-23T01:53:46.628Z,1011.84
2018-02-23T01:54:46.628Z,1011.84
2018-02-23T01:55:46.563Z,1011.85
2018-02-23T01:56:46.525Z,1011.8
2018-02-23T01:57:46.489Z,1011.82
2018-02-23T01:58:46.453Z,1011.77
2018-02-23T01:59:46.419Z,1011.78
2018-02-23T02:00:46.382Z,1011.79
2018-02-23T02:01:46.348Z,1011.8
2018-02-23T02:02:46.318Z,1011.76
2018-02-23T02:03:46.278Z,1011.74
2018-02-23T02:04:46.243Z,1011.75
2018-02-23T02:05:46.206Z,1011.77
2018-02-23T02:06:46.173Z,1011.8
2018-02-23T02:07:46.137Z,1011.74
2018-02-23T02:08:46.102Z,1011.73
2018-02-23T02:09:46.067Z,1011.69
2018-02-23T02:10:46.031Z,1011.69
2018-02-23T02:11:45.997Z,1011.73
2018-02-23T02:12:45.961Z,1011.72
2018-02-23T02:13:45.926Z,1011.72
2018-02-23T02:14:45.889Z,1011.68
2018-02-23T02:15:45.855Z,1011.63
2018-02-23T02:16:45.820Z,1011.59
2018-02-23T02:17:45.784Z,1011.55
2018-02-23T02:18:45.750Z,1011.63
2018-02-23T02:19:45.714Z,1011.59
2018-02-23T02:20:45.679Z,1011.59
2018-02-23T02:21:45.645Z,1011.56
2018-02-23T02:22:45.609Z,1011.58
2018-02-23T02:23:45.573Z,1011.57
2018-02-23T02:24:45.546Z,1011.56
2018-02-23T02:25:45.503Z,1011.58
2018-02-23T02:26:45.468Z,1011.59
2018-02-23T02:27:45.433Z,1011.57
2018-02-23T02:28:45.398Z,1011.56
2018-02-23T02:29:45.363Z,1011.58
2018-02-23T02:30:45.327Z,1011.56
2018-02-23T02:31:45.293Z,1011.52
2018-02-23T02:32:45.258Z,1011.5
2018-02-23T02:33:45.222Z,1011.5
2018-02-23T02:34:45.186Z,1011.5
2018-02-23T02:35:45.156Z,1011.49
2018-02-23T02:36:45.118Z,1011.48
2018-02-23T02:37:45.081Z,1011.42
2018-02-23T02:38:45.047Z,1011.46
2018-02-23T02:39:45.012Z,1011.44
2018-02-23T02:40:44.976Z,1011.46
2018-02-23T02:41:44.940Z,1011.49
2018-02-23T02:42:44.905Z,1011.51
2018-02-23T02:43:44.870Z,1011.51
2018-02-23T02:44:44.836Z,1011.54
2018-02-23T02:45:44.800Z,1011.5
2018-02-23T02:46:44.764Z,1011.49
2018-02-23T02:47:44.730Z,1011.52
2018-02-23T02:48:44.694Z,1011.5
2018-02-23T02:49:44.659Z,1011.48
2018-02-23T02:50:44.624Z,1011.46
2018-02-23T02:51:44.588Z,1011.51
2018-02-23T02:52:44.552Z,1011.51
2018-02-23T02:53:44.518Z,1011.54
2018-02-23T02:54:44.481Z,1011.52
2018-02-23T02:55:44.448Z,1011.51
2018-02-23T02:56:44.413Z,1011.43
2018-02-23T02:57:44.378Z,1011.47
2018-02-23T02:58:44.342Z,1011.47
2018-02-23T02:59:44.307Z,1011.49
2018-02-23T03:00:44.272Z,1011.5
2018-02-23T03:01:44.240Z,1011.49
2018-02-23T03:02:44.202Z,1011.46
2018-02-23T03:03:44.165Z,1011.42
2018-02-23T03:04:44.136Z,1011.48
2018-02-23T03:05:44.096Z,1011.47
2018-02-23T03:06:44.061Z,1011.47
2018-02-23T03:07:44.024Z,1011.49
2018-02-23T03:08:43.990Z,1011.46
2018-02-23T03:09:43.954Z,1011.44
2018-02-23T03:10:44.012Z,1011.47
2018-02-23T03:11:43.885Z,1011.48
2018-02-23T03:12:43.848Z,1011.47
2018-02-23T03:13:43.813Z,1011.49
2018-02-23T03:14:43.778Z,1011.49
2018-02-23T03:15:43.742Z,1011.49
2018-02-23T03:16:43.708Z,1011.44
2018-02-23T03:17:43.671Z,1011.45
2018-02-23T03:18:43.636Z,1011.41
2018-02-23T03:19:43.603Z,1011.4
2018-02-23T03:20:43.568Z,1011.41
2018-02-23T03:21:43.534Z,1011.37
2018-02-23T03:22:43.497Z,1011.36
2018-02-23T03:23:43.462Z,1011.38
2018-02-23T03:24:43.427Z,1011.34
2018-02-23T03:25:43.391Z,1011.34
2018-02-23T03:26:43.356Z,1011.37
2018-02-23T03:27:43.320Z,1011.38
2018-02-23T03:28:43.291Z,1011.44
2018-02-23T03:29:43.250Z,1011.49
2018-02-23T03:30:43.216Z,1011.49
2018-02-23T03:31:43.180Z,1011.5
2018-02-23T03:32:43.144Z,1011.44
2018-02-23T03:33:43.108Z,1011.49
2018-02-23T03:34:43.075Z,1011.46
2018-02-23T03:35:43.038Z,1011.38
2018-02-23T03:36:43.002Z,1011.4
2018-02-23T03:37:42.968Z,1011.39
2018-02-23T03:38:42.932Z,1011.44
2018-02-23T03:39:42.896Z,1011.46
2018-02-23T03:40:42.861Z,1011.44
2018-02-23T03:41:42.826Z,1011.42
2018-02-23T03:42:42.793Z,1011.46
2018-02-23T03:43:42.754Z,1011.44
2018-02-23T03:44:42.718Z,1011.52
2018-02-23T03:45:42.683Z,1011.53
2018-02-23T03:46:42.648Z,1011.51
2018-02-23T03:47:42.612Z,1011.5
2018-02-23T03:48:42.575Z,1011.49
2018-02-23T03:49:42.542Z,1011.5
2018-02-23T03:50:42.508Z,1011.5
2018-02-23T03:51:42.472Z,1011.46
2018-02-23T03:52:42.436Z,1011.44
2018-02-23T03:53:42.399Z,1011.49
2018-02-23T03:54:42.363Z,1011.49
2018-02-23T03:55:42.329Z,1011.46
2018-02-23T03:56:42.299Z,1011.48
2018-02-23T03:57:42.258Z,1011.53
2018-02-23T03:58:42.222Z,1011.48
2018-02-23T03:59:42.187Z,1011.47
2018-02-23T04:00:42.153Z,1011.45
2018-02-23T04:01:42.115Z,1011.47
2018-02-23T04:02:42.082Z,1011.51
2018-02-23T04:03:42.044Z,1011.45
2018-02-23T04:04:42.009Z,1011.45
2018-02-23T04:05:41.973Z,1011.49
2018-02-23T04:06:41.937Z,1011.46
2018-02-23T04:07:41.902Z,1011.49
2018-02-23T04:08:41.867Z,1011.48
2018-02-23T04:09:41.834Z,1011.48
2018-02-23T04:10:41.795Z,1011.49
2018-02-23T04:11:41.759Z,1011.42
2018-02-23T04:12:41.723Z,1011.43
2018-02-23T04:13:41.697Z,1011.42
2018-02-23T04:14:41.653Z,1011.43
2018-02-23T04:15:41.617Z,1011.41
2018-02-23T04:16:41.583Z,1011.4
2018-02-23T04:17:41.546Z,1011.41
2018-02-23T04:18:41.510Z,1011.4
2018-02-23T04:19:41.475Z,1011.39
2018-02-23T04:20:41.438Z,1011.39
2018-02-23T04:21:41.403Z,1011.41
2018-02-23T04:22:41.367Z,1011.43
2018-02-23T04:23:41.331Z,1011.45
2018-02-23T04:24:41.296Z,1011.44
2018-02-23T04:25:41.260Z,1011.39
2018-02-23T04:26:41.225Z,1011.41
2018-02-23T04:27:41.189Z,1011.39
2018-02-23T04:28:41.153Z,1011.45
2018-02-23T04:29:41.119Z,1011.46
2018-02-23T04:30:41.085Z,1011.46
2018-02-23T04:31:41.049Z,1011.46
2018-02-23T04:32:41.010Z,1011.46
2018-02-23T04:33:40.975Z,1011.51
2018-02-23T04:34:40.938Z,1011.5
2018-02-23T04:35:40.902Z,1011.52
2018-02-23T04:36:40.876Z,1011.5
2018-02-23T04:37:40.832Z,1011.55
2018-02-23T04:38:40.796Z,1011.55
2018-02-23T04:39:40.767Z,1011.64
2018-02-23T04:40:40.731Z,1011.62
2018-02-23T04:41:40.689Z,1011.66
2018-02-23T04:42:40.652Z,1011.61
2018-02-23T04:43:40.618Z,1011.64
2018-02-23T04:44:40.581Z,1011.63
2018-02-23T04:45:40.546Z,1011.63
2018-02-23T04:46:40.510Z,1011.64
2018-02-23T04:47:40.474Z,1011.65
2018-02-23T04:48:40.438Z,1011.6
2018-02-23T04:49:40.401Z,1011.64
2018-02-23T04:50:40.365Z,1011.65
2018-02-23T04:51:40.331Z,1011.65
2018-02-23T04:52:40.295Z,1011.66
2018-02-23T04:53:40.259Z,1011.65
2018-02-23T04:54:40.223Z,1011.66
2018-02-23T04:55:40.188Z,1011.63
2018-02-23T04:56:40.151Z,1011.68
2018-02-23T04:57:40.116Z,1011.66
2018-02-23T04:58:40.081Z,1011.67
2018-02-23T04:59:40.045Z,1011.73
2018-02-23T05:00:40.009Z,1011.73
2018-02-23T05:01:39.972Z,1011.73
2018-02-23T05:02:39.938Z,1011.75
2018-02-23T05:03:39.901Z,1011.75
2018-02-23T05:04:39.867Z,1011.77
2018-02-23T05:05:39.830Z,1011.78
2018-02-23T05:06:39.795Z,1011.81
2018-02-23T05:07:39.758Z,1011.73
2018-02-23T05:08:39.723Z,1011.77
2018-02-23T05:09:39.688Z,1011.72
2018-02-23T05:10:39.651Z,1011.72
2018-02-23T05:11:39.617Z,1011.74
2018-02-23T05:12:39.580Z,1011.73
2018-02-23T05:13:39.545Z,1011.66
2018-02-23T05:14:39.509Z,1011.69
2018-02-23T05:15:39.474Z,1011.71
2018-02-23T05:16:39.451Z,1011.71
2018-02-23T05:17:39.403Z,1011.71
2018-02-23T05:18:39.368Z,1011.75
2018-02-23T05:19:39.332Z,1011.73
2018-02-23T05:20:39.300Z,1011.77
2018-02-23T05:21:39.262Z,1011.77
2018-02-23T05:22:39.230Z,1011.82
2018-02-23T05:23:39.191Z,1011.8
2018-02-23T05:24:39.154Z,1011.78
2018-02-23T05:25:39.119Z,1011.76
2018-02-23T05:26:39.085Z,1011.76
2018-02-23T05:27:39.049Z,1011.72
2018-02-23T05:28:39.014Z,1011.76
2018-02-23T05:29:38.978Z,1011.74
2018-02-23T05:30:38.942Z,1011.74
2018-02-23T05:31:38.908Z,1011.75
2018-02-23T05:32:38.872Z,1011.73
2018-02-23T05:33:38.836Z,1011.73
2018-02-23T05:34:38.804Z,1011.76
2018-02-23T05:35:38.768Z,1011.74
2018-02-23T05:36:38.730Z,1011.73
2018-02-23T05:37:38.694Z,1011.7
2018-02-23T05:38:38.659Z,1011.68
2018-02-23T05:39:38.624Z,1011.72
2018-02-23T05:40:38.587Z,1011.71
2018-02-23T05:41:38.554Z,1011.69
2018-02-23T05:42:38.527Z,1011.68
2018-02-23T05:43:38.483Z,1011.72
2018-02-23T05:44:38.445Z,1011.64
2018-02-23T05:45:38.441Z,1011.69
2018-02-23T05:46:38.374Z,1011.74
2018-02-23T05:47:38.339Z,1011.76
2018-02-23T05:48:38.304Z,1011.75
2018-02-23T05:49:38.268Z,1011.77
2018-02-23T05:50:38.234Z,1011.79
2018-02-23T05:51:38.196Z,1011.74
2018-02-23T05:52:38.160Z,1011.74
2018-02-23T05:53:38.124Z,1011.78
2018-02-23T05:54:38.089Z,1011.71
2018-02-23T05:55:38.060Z,1011.72
2018-02-23T05:56:38.017Z,1011.71
2018-02-23T05:57:37.985Z,1011.71
2018-02-23T05:58:37.946Z,1011.78
2018-02-23T05:59:37.911Z,1011.77
2018-02-23T06:00:37.876Z,1011.79
2018-02-23T06:01:37.840Z,1011.77
2018-02-23T06:02:37.803Z,1011.84
2018-02-23T06:03:37.769Z,1011.82
2018-02-23T06:04:37.733Z,1011.82
2018-02-23T06:05:37.697Z,1011.84
2018-02-23T06:06:37.661Z,1011.83
2018-02-23T06:07:37.628Z,1011.88
2018-02-23T06:08:37.590Z,1011.86
2018-02-23T06:09:37.554Z,1011.85
2018-02-23T06:10:37.518Z,1011.86
2018-02-23T06:11:37.483Z,1011.87
2018-02-23T06:12:37.449Z,1011.84
2018-02-23T06:13:37.411Z,1011.91
2018-02-23T06:14:37.376Z,1011.87
2018-02-23T06:15:37.341Z,1011.88
2018-02-23T06:16:37.308Z,1011.87
2018-02-23T06:17:37.268Z,1011.9
2018-02-23T06:18:37.234Z,1011.86
2018-02-23T06:19:37.199Z,1011.92
2018-02-23T06:20:37.161Z,1011.9
2018-02-23T06:21:37.127Z,1011.91
2018-02-23T06:22:37.091Z,1011.95
2018-02-23T06:23:37.056Z,1011.96
2018-02-23T06:24:37.019Z,1011.95
2018-02-23T06:25:36.984Z,1011.97
2018-02-23T06:26:36.948Z,1011.99
2018-02-23T06:27:36.911Z,1012.03
2018-02-23T06:28:36.878Z,1011.98
2018-02-23T06:29:36.843Z,1011.97
2018-02-23T06:30:36.807Z,1011.97
2018-02-23T06:31:36.770Z,1011.99
2018-02-23T06:32:36.736Z,1012
2018-02-23T06:33:36.700Z,1012.06
2018-02-23T06:34:36.665Z,1012.03
2018-02-23T06:35:36.629Z,1012.09
2018-02-23T06:36:36.594Z,1012.04
2018-02-23T06:37:36.559Z,1012.15
2018-02-23T06:38:36.523Z,1012.12
2018-02-23T06:39:36.488Z,1012.11
2018-02-23T06:40:36.452Z,1012.15
2018-02-23T06:41:36.418Z,1012.1
2018-02-23T06:42:36.382Z,1012.12
2018-02-23T06:43:36.347Z,1012.17
2018-02-23T06:44:36.312Z,1012.19
2018-02-23T06:45:36.279Z,1012.15
2018-02-23T06:46:36.241Z,1012.19
2018-02-23T06:47:36.206Z,1012.19
2018-02-23T06:48:36.171Z,1012.21
2018-02-23T06:49:36.135Z,1012.22
2018-02-23T06:50:36.100Z,1012.21
2018-02-23T06:51:36.066Z,1012.18
2018-02-23T06:52:36.082Z,1012.2
2018-02-23T06:53:35.994Z,1012.18
2018-02-23T06:54:35.959Z,1012.15
2018-02-23T06:55:35.924Z,1012.17
2018-02-23T06:56:35.890Z,1012.14
2018-02-23T06:57:35.864Z,1012.14
2018-02-23T06:58:36.078Z,1012.16
2018-02-23T06:59:36.024Z,1012.13
2018-02-23T07:00:35.929Z,1012.19
2018-02-23T07:01:36.063Z,1012.17
2018-02-23T07:02:35.687Z,1012.11
2018-02-23T07:03:35.644Z,1012.12
2018-02-23T07:04:35.609Z,1012.13
2018-02-23T07:05:35.645Z,1012.14
2018-02-23T07:06:35.543Z,1012.12
2018-02-23T07:07:35.575Z,1012.09
2018-02-23T07:08:35.469Z,1012.09
2018-02-23T07:09:35.435Z,1012.11
2018-02-23T07:10:35.474Z,1012.11
2018-02-23T07:11:35.365Z,1012.07
2018-02-23T07:12:35.330Z,1012.1
2018-02-23T07:13:35.296Z,1012.1
2018-02-23T07:14:35.261Z,1012.14
2018-02-23T07:15:35.226Z,1012.16
2018-02-23T07:16:35.192Z,1012.12
2018-02-23T07:17:35.157Z,1012.19
2018-02-23T07:18:35.123Z,1012.12
2018-02-23T07:19:35.088Z,1012.15
2018-02-23T07:20:35.054Z,1012.16
2018-02-23T07:21:35.020Z,1012.19
2018-02-23T07:22:34.985Z,1012.19
2018-02-23T07:23:34.951Z,1012.2
2018-02-23T07:24:34.916Z,1012.2
2018-02-23T07:25:34.883Z,1012.19
2018-02-23T07:26:34.846Z,1012.23
2018-02-23T07:27:34.812Z,1012.2
2018-02-23T07:28:34.778Z,1012.19
2018-02-23T07:29:34.744Z,1012.2
2018-02-23T07:30:34.709Z,1012.23
2018-02-23T07:31:34.674Z,1012.21
2018-02-23T07:32:34.640Z,1012.19
2018-02-23T07:33:34.604Z,1012.19
2018-02-23T07:34:34.569Z,1012.25
2018-02-23T07:35:34.542Z,1012.22
2018-02-23T07:36:34.501Z,1012.26
2018-02-23T07:37:34.467Z,1012.22
2018-02-23T07:38:34.432Z,1012.23
2018-02-23T07:39:34.402Z,1012.2
2018-02-23T07:40:34.364Z,1012.21
2018-02-23T07:41:34.330Z,1012.2
2018-02-23T07:42:34.298Z,1012.21
2018-02-23T07:43:34.261Z,1012.25
2018-02-23T07:44:34.227Z,1012.15
2018-02-23T07:45:34.193Z,1012.2
2018-02-23T07:46:34.159Z,1012.23
2018-02-23T07:47:34.125Z,1012.18
2018-02-23T07:48:34.089Z,1012.24
2018-02-23T07:49:34.056Z,1012.28
2018-02-23T07:50:34.025Z,1012.28
2018-02-23T07:51:33.989Z,1012.31
2018-02-23T07:52:33.954Z,1012.26
2018-02-23T07:53:33.920Z,1012.25
2018-02-23T07:54:33.888Z,1012.2
2018-02-23T07:55:33.850Z,1012.22
2018-02-23T07:56:34.237Z,1012.23
2018-02-23T07:57:34.078Z,1012.15
2018-02-23T07:58:34.195Z,1012.32
2018-02-23T07:59:33.715Z,1012.3
2018-02-23T08:00:33.681Z,1012.38
2018-02-23T08:01:33.647Z,1012.33
2018-02-23T08:02:33.613Z,1012.33
2018-02-23T08:03:33.579Z,1012.37
2018-02-23T08:04:33.547Z,1012.34
2018-02-23T08:05:33.629Z,1012.38
2018-02-23T08:06:33.671Z,1012.42
2018-02-23T08:07:33.449Z,1012.34
2018-02-23T08:08:33.455Z,1012.3
2018-02-23T08:09:33.563Z,1012.29
2018-02-23T08:10:33.342Z,1012.38
2018-02-23T08:11:33.308Z,1012.33
2018-02-23T08:12:33.274Z,1012.33
2018-02-23T08:13:33.240Z,1012.4
2018-02-23T08:14:33.206Z,1012.39
2018-02-23T08:15:33.172Z,1012.35
2018-02-23T08:16:33.139Z,1012.37
2018-02-23T08:17:33.105Z,1012.37
2018-02-23T08:18:33.071Z,1012.42
2018-02-23T08:19:33.038Z,1012.44
2018-02-23T08:20:33.004Z,1012.41
2018-02-23T08:21:32.970Z,1012.35
2018-02-23T08:22:32.936Z,1012.41
2018-02-23T08:23:32.903Z,1012.36
2018-02-23T08:24:32.869Z,1012.46
2018-02-23T08:25:32.835Z,1012.37
2018-02-23T08:26:32.893Z,1012.48
2018-02-23T08:27:32.767Z,1012.38
2018-02-23T08:28:32.734Z,1012.37
2018-02-23T08:29:32.700Z,1012.41
2018-02-23T08:30:32.673Z,1012.39
2018-02-23T08:31:32.633Z,1012.36
2018-02-23T08:32:32.601Z,1012.38
2018-02-23T08:33:32.567Z,1012.4
2018-02-23T08:34:32.536Z,1012.43
2018-02-23T08:35:32.511Z,1012.33
2018-02-23T08:36:32.465Z,1012.43
2018-02-23T08:37:32.433Z,1012.35
2018-02-23T08:38:32.399Z,1012.39
2018-02-23T08:39:32.365Z,1012.38
2018-02-23T08:40:32.334Z,1012.43
2018-02-23T08:41:32.298Z,1012.29
2018-02-23T08:42:32.311Z,1012.41
2018-02-23T08:43:32.232Z,1012.37
2018-02-23T08:44:32.197Z,1012.38
2018-02-23T08:45:32.163Z,1012.43
2018-02-23T08:46:32.133Z,1012.17
2018-02-23T08:47:32.097Z,1012.39
2018-02-23T08:48:32.064Z,1012.37
2018-02-23T08:49:32.031Z,1012.29
2018-02-23T08:50:32.023Z,1012.36
2018-02-23T08:51:31.963Z,1012.27
2018-02-23T08:52:31.930Z,1012.32
2018-02-23T08:53:31.896Z,1012.33
2018-02-23T08:54:31.916Z,1012.36
2018-02-23T08:55:31.893Z,1012.37
2018-02-23T08:56:31.796Z,1012.26
2018-02-23T08:57:31.813Z,1012.24
2018-02-23T08:58:31.730Z,1012.36
2018-02-23T08:59:31.720Z,1012.37
2018-02-23T09:00:31.664Z,1012.34
2018-02-23T09:01:31.630Z,1012.31
2018-02-23T09:02:31.597Z,1012.31
2018-02-23T09:03:31.564Z,1012.41
2018-02-23T09:04:31.532Z,1012.34
2018-02-23T09:05:31.498Z,1012.32
2018-02-23T09:06:31.465Z,1012.35
2018-02-23T09:07:31.432Z,1012.33
2018-02-23T09:08:31.398Z,1012.28
2018-02-23T09:09:31.364Z,1012.23
2018-02-23T09:10:31.387Z,1012.29
2018-02-23T09:11:31.302Z,1012.26
2018-02-23T09:12:31.267Z,1012.3
2018-02-23T09:13:31.236Z,1012.26
2018-02-23T09:14:31.200Z,1012.35
2018-02-23T09:15:31.166Z,1012.29
2018-02-23T09:16:31.138Z,1012.26
2018-02-23T09:17:31.103Z,1012.23
2018-02-23T09:18:31.067Z,1012.22
2018-02-23T09:19:31.032Z,1012.24
2018-02-23T09:20:31.001Z,1012.18
2018-02-23T09:21:31.005Z,1012.21
2018-02-23T09:22:30.936Z,1012.17
2018-02-23T09:23:30.902Z,1012.17
2018-02-23T09:24:30.869Z,1012.14
2018-02-23T09:25:30.837Z,1012.15
2018-02-23T09:26:30.804Z,1012.13
2018-02-23T09:27:30.770Z,1012.19
2018-02-23T09:28:30.742Z,1012.27
2018-02-23T09:29:30.705Z,1012.18
2018-02-23T09:30:30.674Z,1012.25
2018-02-23T09:31:30.651Z,1012.22
2018-02-23T09:32:30.645Z,1012.22
2018-02-23T09:33:30.574Z,1012.2
2018-02-23T09:34:30.541Z,1012.25
2018-02-23T09:35:30.508Z,1012.2
2018-02-23T09:36:30.475Z,1012.18
2018-02-23T09:37:30.443Z,1012.22
2018-02-23T09:38:30.409Z,1012.24
2018-02-23T09:39:30.378Z,1012.31
2018-02-23T09:40:30.344Z,1012.24
2018-02-23T09:41:30.311Z,1012.23
2018-02-23T09:42:30.281Z,1012.25
2018-02-23T09:43:30.246Z,1012.38
2018-02-23T09:44:30.213Z,1012.32
2018-02-23T09:45:30.180Z,1012.38
2018-02-23T09:46:30.147Z,1012.4
2018-02-23T09:47:30.134Z,1012.36
2018-02-23T09:48:30.081Z,1012.35
2018-02-23T09:49:30.049Z,1012.41
2018-02-23T09:50:30.017Z,1012.36
2018-02-23T09:51:29.985Z,1012.38
2018-02-23T09:52:29.995Z,1012.36
2018-02-23T09:53:29.920Z,1012.32
2018-02-23T09:54:29.885Z,1012.41
2018-02-23T09:55:29.853Z,1012.38
2018-02-23T09:56:29.820Z,1012.25
2018-02-23T09:57:29.880Z,1012.42
2018-02-23T09:58:29.756Z,1012.43
2018-02-23T09:59:29.726Z,1012.4
2018-02-23T10:00:29.689Z,1012.44
2018-02-23T10:01:29.657Z,1012.43
2018-02-23T10:02:29.625Z,1012.45
2018-02-23T10:03:29.592Z,1012.43
2018-02-23T10:04:29.788Z,1012.44
2018-02-23T10:05:29.528Z,1012.39
2018-02-23T10:06:29.495Z,1012.45
2018-02-23T10:07:29.525Z,1012.47
2018-02-23T10:08:29.429Z,1012.5
2018-02-23T10:09:29.397Z,1012.45
2018-02-23T10:10:29.381Z,1012.43
2018-02-23T10:11:29.336Z,1012.42
2018-02-23T10:12:29.300Z,1012.42
2018-02-23T10:13:29.268Z,1012.38
2018-02-23T10:14:29.240Z,1012.41
2018-02-23T10:15:29.203Z,1012.38
2018-02-23T10:16:29.327Z,1012.4
2018-02-23T10:17:29.172Z,1012.32
2018-02-23T10:18:29.106Z,1012.45
2018-02-23T10:19:29.073Z,1012.35
2018-02-23T10:20:29.041Z,1012.33
2018-02-23T10:21:29.009Z,1012.39
2018-02-23T10:22:28.975Z,1012.3
2018-02-23T10:23:28.944Z,1012.31
2018-02-23T10:24:28.912Z,1012.41
2018-02-23T10:25:28.879Z,1012.25
2018-02-23T10:26:28.847Z,1012.21
2018-02-23T10:27:28.818Z,1012.28
2018-02-23T10:28:28.783Z,1012.22
2018-02-23T10:29:28.751Z,1012.25
2018-02-23T10:30:28.721Z,1012.09
2018-02-23T10:31:28.687Z,1012.2
2018-02-23T10:32:28.655Z,1012.15
2018-02-23T10:33:28.622Z,1012.18
2018-02-23T10:34:28.590Z,1012.2
2018-02-23T10:35:28.559Z,1012.17
2018-02-23T10:36:28.527Z,1012.25
2018-02-23T10:37:28.495Z,1011.97
2018-02-23T10:38:28.462Z,1012.25
2018-02-23T10:39:28.436Z,1012.25
2018-02-23T10:40:28.401Z,1012.22
2018-02-23T10:41:28.368Z,1012.18
2018-02-23T10:42:28.335Z,1012.2
2018-02-23T10:43:28.302Z,1012.2
2018-02-23T10:44:28.270Z,1012.22
2018-02-23T10:45:28.241Z,1012.23
2018-02-23T10:46:28.205Z,1012.14
2018-02-23T10:47:28.173Z,1012.26
2018-02-23T10:48:28.142Z,1012.23
2018-02-23T10:49:28.109Z,1012.19
2018-02-23T10:50:28.083Z,1012.14
2018-02-23T10:51:28.045Z,1012.17
2018-02-23T10:52:28.015Z,1012.1
2018-02-23T10:53:27.983Z,1012.13
2018-02-23T10:54:27.950Z,1012.13
2018-02-23T10:55:27.920Z,1012.15
2018-02-23T10:56:27.887Z,1012.09
2018-02-23T10:57:27.856Z,1012.18
2018-02-23T10:58:28.002Z,1012.06
2018-02-23T10:59:27.792Z,1012.08
2018-02-23T11:00:27.760Z,1012.1
2018-02-23T11:01:27.728Z,1012.12
2018-02-23T11:02:27.696Z,1012.11
2018-02-23T11:03:27.667Z,1012.12
2018-02-23T11:04:27.633Z,1012.12
2018-02-23T11:05:27.601Z,1012.11
2018-02-23T11:06:27.569Z,1012.13
2018-02-23T11:07:27.538Z,1012.11
2018-02-23T11:08:27.507Z,1012.11
2018-02-23T11:09:27.474Z,1012.06
2018-02-23T11:10:27.448Z,1012.13
2018-02-23T11:11:27.601Z,1012.08
2018-02-23T11:12:27.775Z,1012.11
2018-02-23T11:13:27.595Z,1011.84
2018-02-23T11:14:27.316Z,1011.98
2018-02-23T11:15:27.290Z,1012.03
2018-02-23T11:16:27.253Z,1011.99
2018-02-23T11:17:27.222Z,1012.04
2018-02-23T11:18:27.188Z,1011.94
2018-02-23T11:19:27.241Z,1012.04
2018-02-23T11:20:27.125Z,1011.97
2018-02-23T11:21:27.095Z,1012.05
2018-02-23T11:22:27.063Z,1012.03
2018-02-23T11:23:27.031Z,1011.98
2018-02-23T11:24:26.999Z,1011.88
2018-02-23T11:25:26.978Z,1011.98
2018-02-23T11:26:26.938Z,1011.92
2018-02-23T11:27:26.904Z,1011.95
2018-02-23T11:28:26.873Z,1011.97
2018-02-23T11:29:26.841Z,1011.88
2018-02-23T11:30:26.864Z,1011.91
2018-02-23T11:31:26.780Z,1011.91
2018-02-23T11:32:26.745Z,1011.67
2018-02-23T11:33:26.718Z,1011.81
2018-02-23T11:34:26.682Z,1011.38
2018-02-23T11:35:26.652Z,1011.79
2018-02-23T11:36:26.621Z,1011.93
2018-02-23T11:37:26.589Z,1011.99
2018-02-23T11:38:26.556Z,1011.91
2018-02-23T11:39:26.525Z,1011.84
2018-02-23T11:40:26.494Z,1011.87
2018-02-23T11:41:26.463Z,1011.99
2018-02-23T11:42:26.432Z,1011.97
2018-02-23T11:43:26.398Z,1011.93
2018-02-23T11:44:26.419Z,1011.96
2018-02-23T11:45:26.335Z,1011.88
2018-02-23T11:46:26.304Z,1011.87
2018-02-23T11:47:26.323Z,1011.9
2018-02-23T11:48:26.242Z,1011.88
2018-02-23T11:49:26.212Z,1011.84
2018-02-23T11:50:26.239Z,1011.87
2018-02-23T11:51:26.146Z,1011.83
2018-02-23T11:52:26.115Z,1011.87
2018-02-23T11:53:26.084Z,1011.87
2018-02-23T11:54:26.052Z,1011.86
2018-02-23T11:55:26.022Z,1011.63
2018-02-23T11:56:25.990Z,1011.84
2018-02-23T11:57:25.958Z,1011.8
2018-02-23T11:58:25.927Z,1011.87
2018-02-23T11:59:25.897Z,1011.74
2018-02-23T12:00:25.865Z,1011.73
2018-02-23T12:01:25.833Z,1011.8
2018-02-23T12:02:25.802Z,1011.77
2018-02-23T12:03:25.771Z,1011.79
2018-02-23T12:04:25.741Z,1011.72
2018-02-23T12:05:25.708Z,1011.71
2018-02-23T12:06:25.677Z,1011.8
2018-02-23T12:07:25.646Z,1011.78
2018-02-23T12:08:25.614Z,1011.8